createdAt,value
2019-03-02T00:02:14.787Z,8.93
2019-03-02T00:04:46.208Z,9.93
2019-03-02T00:07:15.964Z,9.53
2019-03-02T00:09:45.782Z,9.37
2019-03-02T00:12:15.533Z,9.87
2019-03-02T00:14:45.293Z,10.60
2019-03-02T00:17:15.510Z,9.00
2019-03-02T00:19:46.536Z,8.60
2019-03-02T00:22:16.281Z,9.30
2019-03-02T00:24:46.110Z,8.93
2019-03-02T00:27:17.768Z,8.47
2019-03-02T00:29:47.292Z,6.53
2019-03-02T00:32:17.148Z,8.40
2019-03-02T00:34:46.916Z,7.93
2019-03-02T00:37:16.661Z,9.90
2019-03-02T00:39:46.395Z,10.90
2019-03-02T00:42:17.077Z,10.23
2019-03-02T00:44:47.982Z,9.90
2019-03-02T00:47:17.742Z,9.43
2019-03-02T00:49:47.484Z,7.27
2019-03-02T00:52:20.433Z,10.77
2019-03-02T00:54:57.789Z,10.67
2019-03-02T00:57:20.203Z,12.13
2019-03-02T00:59:49.949Z,9.97
2019-03-02T01:02:20.852Z,11.57
2019-03-02T01:04:50.662Z,10.70
2019-03-02T01:07:20.763Z,9.73
2019-03-02T01:09:52.049Z,11.43
2019-03-02T01:12:21.893Z,12.03
2019-03-02T01:14:51.653Z,11.90
2019-03-02T01:17:21.395Z,12.53
2019-03-02T01:19:52.699Z,11.70
2019-03-02T01:22:22.924Z,9.90
2019-03-02T01:24:52.656Z,9.80
2019-03-02T01:27:22.482Z,11.17
2019-03-02T01:29:54.682Z,13.77
2019-03-02T01:32:23.752Z,9.40
2019-03-02T01:34:53.496Z,12.67
2019-03-02T01:37:23.368Z,10.33
2019-03-02T01:39:53.156Z,11.47
2019-03-02T01:42:25.883Z,10.87
2019-03-02T01:44:54.480Z,11.73
2019-03-02T01:47:24.308Z,10.93
2019-03-02T01:49:54.310Z,11.13
2019-03-02T01:52:24.080Z,12.23
2019-03-02T01:54:55.769Z,11.97
2019-03-02T01:57:25.288Z,11.50
2019-03-02T01:59:55.017Z,9.77
2019-03-02T02:02:24.757Z,9.47
2019-03-02T02:04:57.541Z,9.97
2019-03-02T02:07:27.228Z,12.60
2019-03-02T02:09:57.111Z,10.63
2019-03-02T02:12:28.770Z,13.13
2019-03-02T02:14:58.549Z,13.13
2019-03-02T02:17:28.394Z,12.20
2019-03-02T02:19:58.233Z,13.40
2019-03-02T02:22:28.116Z,8.37
2019-03-02T02:25:00.499Z,11.27
2019-03-02T02:27:29.725Z,12.57
2019-03-02T02:29:59.490Z,9.13
2019-03-02T02:32:29.299Z,12.83
2019-03-02T02:35:00.939Z,9.47
2019-03-02T02:37:32.146Z,12.93
2019-03-02T02:40:02.277Z,10.33
2019-03-02T02:42:32.364Z,13.57
2019-03-02T02:45:02.521Z,11.53
2019-03-02T02:47:33.524Z,10.67
2019-03-02T02:50:05.000Z,13.20
2019-03-02T02:52:34.884Z,10.30
2019-03-02T02:55:05.363Z,13.50
2019-03-02T02:57:38.292Z,12.60
2019-03-02T03:00:16.422Z,12.23
2019-03-02T03:02:47.629Z,10.67
2019-03-02T03:05:17.750Z,8.77
2019-03-02T03:07:53.222Z,10.60
2019-03-02T03:10:28.016Z,12.13
2019-03-02T03:13:01.991Z,13.00
2019-03-02T03:15:37.061Z,11.70
2019-03-02T03:18:12.499Z,11.97
2019-03-02T03:20:47.618Z,14.37
2019-03-02T03:23:11.738Z,9.87
2019-03-02T03:25:41.798Z,12.37
2019-03-02T03:28:11.855Z,5.67
2019-03-02T03:30:42.419Z,9.33
2019-03-02T03:33:12.218Z,8.27
2019-03-02T03:35:42.359Z,13.80
2019-03-02T03:38:12.093Z,9.67
2019-03-02T03:40:42.056Z,12.80
2019-03-02T03:43:11.878Z,12.07
2019-03-02T03:45:43.311Z,14.23
2019-03-02T03:48:17.903Z,11.27
2019-03-02T03:50:47.956Z,12.70
2019-03-02T03:53:21.628Z,8.33
2019-03-02T03:55:49.334Z,12.07
2019-03-02T03:58:19.539Z,12.37
2019-03-02T04:00:49.494Z,13.87
2019-03-02T04:03:19.479Z,7.70
2019-03-02T04:05:49.556Z,10.27
2019-03-02T04:08:24.488Z,13.97
2019-03-02T04:10:51.114Z,14.73
2019-03-02T04:13:21.121Z,13.00
2019-03-02T04:15:51.134Z,12.50
2019-03-02T04:18:58.259Z,13.17
2019-03-02T04:21:40.033Z,9.40
2019-03-02T04:24:10.021Z,14.50
2019-03-02T04:26:39.914Z,8.20
2019-03-02T04:29:11.405Z,8.73
2019-03-02T04:31:43.966Z,12.90
2019-03-02T04:34:20.271Z,8.67
2019-03-02T04:36:47.322Z,10.53
2019-03-02T04:39:15.605Z,11.07
2019-03-02T04:41:45.649Z,6.53
2019-03-02T04:44:15.530Z,9.90
2019-03-02T04:46:47.771Z,11.17
2019-03-02T04:49:16.991Z,11.97
2019-03-02T04:51:46.822Z,10.87
2019-03-02T04:54:16.591Z,11.23
2019-03-02T04:56:46.342Z,11.73
2019-03-02T04:59:18.737Z,11.67
2019-03-02T05:01:47.743Z,13.07
2019-03-02T05:04:17.489Z,10.80
2019-03-02T05:06:50.539Z,11.50
2019-03-02T05:09:18.765Z,11.53
2019-03-02T05:11:48.526Z,10.57
2019-03-02T05:14:18.354Z,10.80
2019-03-02T05:16:48.464Z,11.17
2019-03-02T05:19:18.311Z,10.70
2019-03-02T05:21:49.106Z,9.93
2019-03-02T05:24:18.850Z,10.60
2019-03-02T05:26:48.673Z,11.20
2019-03-02T05:29:18.545Z,10.10
2019-03-02T05:31:48.355Z,9.50
2019-03-02T05:34:18.120Z,10.70
2019-03-02T05:36:48.189Z,11.23
2019-03-02T05:39:18.074Z,10.77
2019-03-02T05:41:48.421Z,11.43
2019-03-02T05:44:18.238Z,7.33
2019-03-02T05:46:48.022Z,7.47
2019-03-02T05:49:18.567Z,10.63
2019-03-02T05:51:48.749Z,6.93
2019-03-02T05:54:18.776Z,10.37
2019-03-02T05:56:48.726Z,8.27
2019-03-02T05:59:18.674Z,11.30
2019-03-02T06:01:48.503Z,9.83
2019-03-02T06:04:18.839Z,10.00
2019-03-02T06:06:50.839Z,9.60
2019-03-02T06:09:22.118Z,7.43
2019-03-02T06:11:52.046Z,9.03
2019-03-02T06:14:22.056Z,7.60
2019-03-02T06:16:53.804Z,7.27
2019-03-02T06:19:24.244Z,10.33
2019-03-02T06:21:54.198Z,9.90
2019-03-02T06:24:24.218Z,10.30
2019-03-02T06:26:54.011Z,4.03
2019-03-02T06:29:23.840Z,8.50
2019-03-02T06:31:54.039Z,6.77
2019-03-02T06:34:24.633Z,8.00
2019-03-02T06:36:54.384Z,10.43
2019-03-02T06:39:24.219Z,9.17
2019-03-02T06:41:54.251Z,9.30
2019-03-02T06:44:24.062Z,6.63
2019-03-02T06:46:54.752Z,8.97
2019-03-02T06:49:25.606Z,9.43
2019-03-02T06:51:55.530Z,9.63
2019-03-02T06:54:25.339Z,9.37
2019-03-02T06:56:58.019Z,9.13
2019-03-02T06:59:26.614Z,10.37
2019-03-02T07:01:56.570Z,9.67
2019-03-02T07:04:27.887Z,8.47
2019-03-02T07:06:57.654Z,10.67
2019-03-02T07:09:27.390Z,9.27
2019-03-02T07:11:57.183Z,9.60
2019-03-02T07:14:28.825Z,10.33
2019-03-02T07:16:58.847Z,8.50
2019-03-02T07:19:44.519Z,9.47
2019-03-02T07:22:16.876Z,8.27
2019-03-02T07:24:46.463Z,10.33
2019-03-02T07:27:16.295Z,10.40
2019-03-02T07:29:46.066Z,11.50
2019-03-02T07:32:15.918Z,9.33
2019-03-02T07:34:45.678Z,11.00
2019-03-02T07:37:21.825Z,6.13
2019-03-02T07:39:51.947Z,9.70
2019-03-02T07:42:21.697Z,7.80
2019-03-02T07:44:54.903Z,11.13
2019-03-02T07:47:24.113Z,10.83
2019-03-02T07:49:54.465Z,8.47
2019-03-02T07:52:24.299Z,11.23
2019-03-02T07:54:58.308Z,10.70
2019-03-02T07:57:26.078Z,9.70
2019-03-02T07:59:57.149Z,9.13
2019-03-02T08:02:29.547Z,9.67
2019-03-02T08:05:00.187Z,9.57
2019-03-02T08:07:30.232Z,10.20
2019-03-02T08:10:02.012Z,9.93
2019-03-02T08:12:31.559Z,9.10
2019-03-02T08:15:02.584Z,8.90
2019-03-02T08:17:32.925Z,8.27
2019-03-02T08:20:03.343Z,6.43
2019-03-02T08:22:35.450Z,8.63
2019-03-02T08:25:09.335Z,9.53
2019-03-02T08:27:42.870Z,7.60
2019-03-02T08:30:15.438Z,10.13
2019-03-02T08:32:48.490Z,5.47
2019-03-02T08:35:22.194Z,9.73
2019-03-02T08:37:52.965Z,9.17
2019-03-02T08:40:24.362Z,10.17
2019-03-02T08:42:58.259Z,9.83
2019-03-02T08:45:30.949Z,11.60
2019-03-02T08:48:07.037Z,10.10
2019-03-02T08:50:38.022Z,7.13
2019-03-02T08:53:08.365Z,8.13
2019-03-02T08:55:38.158Z,10.67
2019-03-02T08:58:08.055Z,10.10
2019-03-02T09:00:38.997Z,12.10
2019-03-02T09:03:09.611Z,11.20
2019-03-02T09:05:44.408Z,9.43
2019-03-02T09:08:11.337Z,13.77
2019-03-02T09:10:41.320Z,12.03
2019-03-02T09:13:11.078Z,10.97
2019-03-02T09:15:43.163Z,9.80
2019-03-02T09:18:17.973Z,8.97
2019-03-02T09:20:47.821Z,10.27
2019-03-02T09:23:17.714Z,8.13
2019-03-02T09:25:49.605Z,10.00
2019-03-02T09:28:23.338Z,8.17
2019-03-02T09:30:54.108Z,9.33
2019-03-02T09:33:28.649Z,10.57
2019-03-02T09:36:03.421Z,11.07
2019-03-02T09:38:42.985Z,6.97
2019-03-02T09:41:22.031Z,10.80
2019-03-02T09:44:00.805Z,9.60
2019-03-02T09:46:29.115Z,12.03
2019-03-02T09:49:00.701Z,10.63
2019-03-02T09:51:56.992Z,9.87
2019-03-02T09:54:34.429Z,10.73
2019-03-02T09:57:09.225Z,10.77
2019-03-02T09:59:48.373Z,8.87
2019-03-02T10:02:20.315Z,9.47
2019-03-02T10:04:52.905Z,10.30
2019-03-02T10:07:28.235Z,10.60
2019-03-02T10:10:04.951Z,11.23
2019-03-02T10:12:38.453Z,10.00
2019-03-02T10:15:22.166Z,9.00
2019-03-02T10:17:52.678Z,6.00
2019-03-02T10:20:22.793Z,9.07
2019-03-02T10:22:56.534Z,11.80
2019-03-02T10:25:33.055Z,9.03
2019-03-02T10:28:04.953Z,8.63
2019-03-02T10:30:36.572Z,11.20
2019-03-02T10:33:08.366Z,9.47
2019-03-02T10:35:40.574Z,9.93
2019-03-02T10:38:10.768Z,10.73
2019-03-02T10:40:48.514Z,8.83
2019-03-02T10:43:19.570Z,9.77
2019-03-02T10:46:08.261Z,9.00
2019-03-02T10:48:40.715Z,10.57
2019-03-02T10:51:11.120Z,11.83
2019-03-02T10:53:40.869Z,10.63
2019-03-02T10:56:12.830Z,10.37
2019-03-02T10:58:43.380Z,10.47
2019-03-02T11:01:13.690Z,11.13
2019-03-02T11:03:44.797Z,10.13
2019-03-02T11:06:21.698Z,11.13
2019-03-02T11:09:13.233Z,9.90
2019-03-02T11:12:06.756Z,13.23
2019-03-02T11:15:07.604Z,7.67
2019-03-02T11:18:02.550Z,10.33
2019-03-02T11:20:55.726Z,10.57
2019-03-02T11:23:44.411Z,6.97
2019-03-02T11:26:34.128Z,9.70
2019-03-02T11:29:21.130Z,10.03
2019-03-02T11:32:09.826Z,8.80
2019-03-02T11:34:59.151Z,7.70
2019-03-02T11:37:45.682Z,9.07
2019-03-02T11:40:33.084Z,9.97
2019-03-02T11:43:16.300Z,9.30
2019-03-02T11:46:12.036Z,10.53
2019-03-02T11:48:57.053Z,8.27
2019-03-02T11:51:44.906Z,9.37
2019-03-02T11:54:31.004Z,10.17
2019-03-02T11:57:17.770Z,10.30
2019-03-02T12:00:14.361Z,10.37
2019-03-02T12:03:03.865Z,6.50
2019-03-02T12:05:56.429Z,7.40
2019-03-02T12:08:44.437Z,4.60
2019-03-02T12:11:36.631Z,8.60
2019-03-02T12:14:16.797Z,11.17
2019-03-02T12:17:08.570Z,7.53
2019-03-02T12:20:09.850Z,7.90
2019-03-02T12:23:14.009Z,10.07
2019-03-02T12:26:07.847Z,7.77
2019-03-02T12:28:51.031Z,7.97
2019-03-02T12:31:46.957Z,8.77
2019-03-02T12:34:41.698Z,10.73
2019-03-02T12:37:32.961Z,7.97
2019-03-02T12:40:20.948Z,8.07
2019-03-02T12:43:13.339Z,9.53
2019-03-02T12:45:57.536Z,6.83
2019-03-02T12:48:55.652Z,6.60
2019-03-02T12:51:35.336Z,9.17
2019-03-02T12:54:28.008Z,8.70
2019-03-02T12:57:23.268Z,9.10
2019-03-02T13:00:35.062Z,6.33
2019-03-02T13:03:31.021Z,10.67
2019-03-02T13:06:32.225Z,7.73
2019-03-02T13:09:29.068Z,8.00
2019-03-02T13:12:24.714Z,8.10
2019-03-02T13:15:12.486Z,6.80
2019-03-02T13:17:58.839Z,12.67
2019-03-02T13:20:44.517Z,8.67
2019-03-02T13:23:42.554Z,8.33
2019-03-02T13:26:17.208Z,9.60
2019-03-02T13:28:58.372Z,6.83
2019-03-02T13:31:56.210Z,7.13
2019-03-02T13:34:48.315Z,7.90
2019-03-02T13:37:46.174Z,6.77
2019-03-02T13:40:33.944Z,8.73
2019-03-02T13:43:24.573Z,7.87
2019-03-02T13:46:11.433Z,7.83
2019-03-02T13:49:18.285Z,6.87
2019-03-02T13:52:13.878Z,4.83
2019-03-02T13:55:00.368Z,6.43
2019-03-02T13:57:43.158Z,6.70
2019-03-02T14:00:40.676Z,6.03
2019-03-02T14:03:18.448Z,4.23
2019-03-02T14:06:22.404Z,6.50
2019-03-02T14:09:08.860Z,5.33
2019-03-02T14:11:55.687Z,5.33
2019-03-02T14:14:46.027Z,6.67
2019-03-02T14:17:24.784Z,6.40
2019-03-02T14:20:13.965Z,5.60
2019-03-02T14:23:12.315Z,4.83
2019-03-02T14:25:46.928Z,8.17
2019-03-02T14:28:38.886Z,6.77
2019-03-02T14:31:19.891Z,5.53
2019-03-02T14:33:52.593Z,7.30
2019-03-02T14:36:40.415Z,6.70
2019-03-02T14:39:45.355Z,6.00
2019-03-02T14:42:34.217Z,5.37
2019-03-02T14:45:22.364Z,6.50
2019-03-02T14:48:13.580Z,6.13
2019-03-02T14:51:03.899Z,5.47
2019-03-02T14:54:10.948Z,6.77
2019-03-02T14:56:50.409Z,7.20
2019-03-02T14:59:46.828Z,7.10
2019-03-02T15:02:31.771Z,6.77
2019-03-02T15:05:20.599Z,6.17
2019-03-02T15:08:31.499Z,6.17
2019-03-02T15:11:22.966Z,5.50
2019-03-02T15:14:07.289Z,5.73
2019-03-02T15:16:59.431Z,7.80
2019-03-02T15:19:57.213Z,5.80
2019-03-02T15:22:37.961Z,6.57
2019-03-02T15:25:36.167Z,8.97
2019-03-02T15:28:29.027Z,7.60
2019-03-02T15:31:06.649Z,7.20
2019-03-02T15:33:49.642Z,7.00
2019-03-02T15:36:38.812Z,5.60
2019-03-02T15:39:27.295Z,5.97
2019-03-02T15:42:22.293Z,6.17
2019-03-02T15:45:14.295Z,6.30
2019-03-02T15:48:02.210Z,6.73
2019-03-02T15:50:45.974Z,6.50
2019-03-02T15:53:30.741Z,7.43
2019-03-02T15:56:28.224Z,7.17
2019-03-02T15:59:07.069Z,5.93
2019-03-02T16:01:44.131Z,6.87
2019-03-02T16:04:35.341Z,7.03
2019-03-02T16:07:34.968Z,6.57
2019-03-02T16:10:29.039Z,6.57
2019-03-02T16:13:24.255Z,6.93
2019-03-02T16:16:11.038Z,6.50
2019-03-02T16:19:12.082Z,7.00
2019-03-02T16:21:57.212Z,6.13
2019-03-02T16:24:56.986Z,5.63
2019-03-02T16:27:48.083Z,5.67
2019-03-02T16:30:34.135Z,6.80
2019-03-02T16:33:35.292Z,6.27
2019-03-02T16:36:30.579Z,5.87
2019-03-02T16:39:34.566Z,6.23
2019-03-02T16:42:14.920Z,6.30
2019-03-02T16:45:15.754Z,6.73
2019-03-02T16:48:10.613Z,7.17
2019-03-02T16:50:54.576Z,6.70
2019-03-02T16:54:02.483Z,5.83
2019-03-02T16:56:45.775Z,8.83
2019-03-02T16:59:32.215Z,8.53
2019-03-02T17:02:23.749Z,8.07
2019-03-02T17:05:09.541Z,8.67
2019-03-02T17:08:01.418Z,8.87
2019-03-02T17:10:56.089Z,8.73
2019-03-02T17:13:44.805Z,7.70
2019-03-02T17:16:45.651Z,9.13
2019-03-02T17:19:38.164Z,9.73
2019-03-02T17:22:18.568Z,10.27
2019-03-02T17:25:06.079Z,7.53
2019-03-02T17:27:43.183Z,7.07
2019-03-02T17:30:31.686Z,8.10
2019-03-02T17:33:09.851Z,8.33
2019-03-02T17:36:02.152Z,8.40
2019-03-02T17:39:01.905Z,7.07
2019-03-02T17:42:01.281Z,8.17
2019-03-02T17:44:37.863Z,7.90
2019-03-02T17:47:18.961Z,8.30
2019-03-02T17:50:03.009Z,8.83
2019-03-02T17:52:43.140Z,8.60
2019-03-02T17:55:31.147Z,11.27
2019-03-02T17:58:35.337Z,13.63
2019-03-02T18:01:22.953Z,12.27
2019-03-02T18:04:00.550Z,9.73
2019-03-02T18:06:37.914Z,9.00
2019-03-02T18:09:29.727Z,9.03
2019-03-02T18:12:18.706Z,9.10
2019-03-02T18:15:07.955Z,8.40
2019-03-02T18:17:59.754Z,9.97
2019-03-02T18:20:30.530Z,8.90
2019-03-02T18:23:00.442Z,10.27
2019-03-02T18:25:30.269Z,9.87
2019-03-02T18:28:00.325Z,9.23
2019-03-02T18:30:30.528Z,10.20
2019-03-02T18:33:11.139Z,12.83
2019-03-02T18:35:41.695Z,12.63
2019-03-02T18:38:13.467Z,12.77
2019-03-02T18:40:43.079Z,11.27
2019-03-02T18:43:14.170Z,11.87
2019-03-02T18:45:45.870Z,11.00
2019-03-02T18:48:34.120Z,11.77
2019-03-02T18:51:15.792Z,10.93
2019-03-02T18:53:45.694Z,12.00
2019-03-02T18:56:15.534Z,10.50
2019-03-02T18:58:45.623Z,10.70
2019-03-02T19:01:15.458Z,12.37
2019-03-02T19:03:45.323Z,11.30
2019-03-02T19:06:15.462Z,11.80
2019-03-02T19:08:47.339Z,12.30
2019-03-02T19:11:18.981Z,11.57
2019-03-02T19:13:48.190Z,10.80
2019-03-02T19:16:18.601Z,11.07
2019-03-02T19:18:48.709Z,10.50
2019-03-02T19:21:18.919Z,11.60
2019-03-02T19:23:48.790Z,10.00
2019-03-02T19:26:18.699Z,11.80
2019-03-02T19:28:48.540Z,10.60
2019-03-02T19:31:18.543Z,11.73
2019-03-02T19:33:48.319Z,13.27
2019-03-02T19:36:18.076Z,12.10
2019-03-02T19:38:47.858Z,13.57
2019-03-02T19:41:17.753Z,13.37
2019-03-02T19:43:48.654Z,13.40
2019-03-02T19:46:18.550Z,11.87
2019-03-02T19:48:48.318Z,9.37
2019-03-02T19:51:18.245Z,8.10
2019-03-02T19:53:48.086Z,9.13
2019-03-02T19:56:17.922Z,8.97
2019-03-02T19:58:47.787Z,8.73
2019-03-02T20:01:17.615Z,8.53
2019-03-02T20:03:48.141Z,8.97
2019-03-02T20:06:18.788Z,7.80
2019-03-02T20:08:48.632Z,9.07
2019-03-02T20:11:18.437Z,9.47
2019-03-02T20:13:48.643Z,9.13
2019-03-02T20:16:18.620Z,7.80
2019-03-02T20:18:48.760Z,9.97
2019-03-02T20:21:18.939Z,8.10
2019-03-02T20:23:48.733Z,9.50
2019-03-02T20:26:19.266Z,7.20
2019-03-02T20:28:49.043Z,8.07
2019-03-02T20:31:19.642Z,7.37
2019-03-02T20:33:49.440Z,6.80
2019-03-02T20:36:19.254Z,8.07
2019-03-02T20:38:49.343Z,6.67
2019-03-02T20:41:19.401Z,7.57
2019-03-02T20:43:50.316Z,8.20
2019-03-02T20:46:20.432Z,7.73
2019-03-02T20:48:50.285Z,6.80
2019-03-02T20:51:20.719Z,8.13
2019-03-02T20:53:50.662Z,7.17
2019-03-02T20:56:20.613Z,7.10
2019-03-02T20:58:50.535Z,7.27
2019-03-02T21:01:20.663Z,7.20
2019-03-02T21:03:51.067Z,6.43
2019-03-02T21:06:21.130Z,7.17
2019-03-02T21:08:51.267Z,7.33
2019-03-02T21:11:21.190Z,7.13
2019-03-02T21:13:51.194Z,8.10
2019-03-02T21:16:21.365Z,6.97
2019-03-02T21:18:51.393Z,8.10
2019-03-02T21:21:21.177Z,7.53
2019-03-02T21:23:51.271Z,7.00
2019-03-02T21:26:21.179Z,7.50
2019-03-02T21:28:50.986Z,7.27
2019-03-02T21:31:21.082Z,7.43
2019-03-02T21:33:50.886Z,7.30
2019-03-02T21:36:20.725Z,8.00
2019-03-02T21:38:50.609Z,8.17
2019-03-02T21:41:20.664Z,7.30
2019-03-02T21:43:50.510Z,7.03
2019-03-02T21:46:20.431Z,7.53
2019-03-02T21:48:50.201Z,6.93
2019-03-02T21:51:22.060Z,7.13
2019-03-02T21:53:52.854Z,7.70
2019-03-02T21:56:22.977Z,6.77
2019-03-02T21:58:52.780Z,7.43
2019-03-02T22:01:22.648Z,6.97
2019-03-02T22:03:52.446Z,7.20
2019-03-02T22:06:22.635Z,8.33
2019-03-02T22:08:52.479Z,7.37
2019-03-02T22:11:22.505Z,6.97
2019-03-02T22:13:52.633Z,6.00
2019-03-02T22:16:22.459Z,6.67
2019-03-02T22:18:52.211Z,7.30
2019-03-02T22:21:22.060Z,6.77
2019-03-02T22:23:51.835Z,6.87
2019-03-02T22:26:21.591Z,6.27
2019-03-02T22:28:51.403Z,6.60
2019-03-02T22:31:21.142Z,7.47
2019-03-02T22:33:50.895Z,6.23
2019-03-02T22:36:20.641Z,6.73
2019-03-02T22:38:50.492Z,6.83
2019-03-02T22:41:20.245Z,6.93
2019-03-02T22:43:49.991Z,7.43
2019-03-02T22:46:20.031Z,6.57
2019-03-02T22:48:49.847Z,6.90
2019-03-02T22:51:19.616Z,6.97
2019-03-02T22:53:49.705Z,6.80
2019-03-02T22:56:19.806Z,7.40
2019-03-02T22:58:48.826Z,6.80
2019-03-02T23:01:33.492Z,6.60
2019-03-02T23:04:03.590Z,7.30
2019-03-02T23:06:33.484Z,6.47
2019-03-02T23:09:05.325Z,7.23
2019-03-02T23:11:36.222Z,7.70
2019-03-02T23:14:06.191Z,7.17
2019-03-02T23:16:35.934Z,7.23
2019-03-02T23:19:05.843Z,7.80
2019-03-02T23:21:35.659Z,5.80
2019-03-02T23:24:05.549Z,5.70
2019-03-02T23:26:35.290Z,7.20
2019-03-02T23:29:05.177Z,7.07
2019-03-02T23:31:34.981Z,7.30
2019-03-02T23:34:04.814Z,6.47
2019-03-02T23:36:36.153Z,6.70
2019-03-02T23:39:07.374Z,6.93
2019-03-02T23:41:38.348Z,8.07
2019-03-02T23:44:08.753Z,7.43
2019-03-02T23:46:38.559Z,8.23
2019-03-02T23:49:08.634Z,7.33
2019-03-02T23:51:38.387Z,7.50
2019-03-02T23:54:08.379Z,6.57
2019-03-02T23:56:38.299Z,6.93
2019-03-02T23:59:08.033Z,6.50
